Time;durP1;ratioP1;P1;durP2;ratioP2;P2;SDS_P1;SDS_P2;PMS_P1;PMS_P2;Temp;Humidity;BMP_temperature;BMP_pressure;BME280_temperature;BME280_humidity;BME280_pressure;Samples;Min_cycle;Max_cycle;Signal;HPM_P1;HPM_P2
2023/04/26 00:25:56;;;;;;;3.45;2.13;;;4.40;99.90;;;;;;20735200;28;20038;-75
2023/04/26 00:35:56;;;;;;;8.43;2.58;;;4.70;99.90;;;;;;20746585;28;20069;-75
2023/04/26 00:45:57;;;;;;;;;;;4.50;99.90;;;;;;20684879;28;20037;-75
2023/04/26 00:55:58;;;;;;;6.00;3.35;;;4.60;99.90;;;;;;20663528;28;19910;-74
2023/04/26 01:05:59;;;;;;;5.93;2.90;;;4.80;99.90;;;;;;20656524;28;20488;-73
2023/04/26 01:16:01;;;;;;;;;;;4.80;99.90;;;;;;20659203;28;20517;-73
2023/04/26 01:26:01;;;;;;;5.65;2.65;;;4.70;99.90;;;;;;20659549;28;19940;-73
2023/04/26 01:36:06;;;;;;;;;;;4.40;99.90;;;;;;20676589;28;20054;-73
2023/04/26 01:46:07;;;;;;;2.17;1.50;;;4.00;99.90;;;;;;20679254;28;19920;-74
2023/04/26 01:56:08;;;;;;;2.85;1.75;;;4.00;99.90;;;;;;20656644;28;20478;-73
2023/04/26 02:06:08;;;;;;;4.15;1.80;;;3.60;99.90;;;;;;20674430;28;20030;-73
2023/04/26 02:16:09;;;;;;;3.13;2.10;;;3.40;99.90;;;;;;20675262;28;20026;-74
2023/04/26 02:26:11;;;;;;;2.60;1.75;;;3.30;99.90;;;;;;20657064;28;20125;-74
2023/04/26 02:36:12;;;;;;;3.80;2.40;;;3.30;99.90;;;;;;20675636;28;20030;-73
2023/04/26 02:46:13;;;;;;;3.40;1.98;;;2.90;99.90;;;;;;20656607;28;20034;-73
2023/04/26 03:06:16;;;;;;;2.88;1.90;;;2.70;99.90;;;;;;20596426;28;20061;-74
2023/04/26 03:16:22;;;;;;;3.03;1.88;;;2.80;99.90;;;;;;20587470;28;20039;-74
2023/04/26 03:26:23;;;;;;;6.53;1.80;;;2.40;99.90;;;;;;20587173;28;20030;-74
2023/04/26 03:36:27;;;;;;;2.85;1.77;;;2.30;99.90;;;;;;20585432;28;20039;-74
2023/04/26 03:46:28;;;;;;;4.22;2.38;;;2.60;99.90;;;;;;20583739;28;20553;-74
2023/04/26 03:56:29;;;;;;;7.75;2.30;;;2.60;99.90;;;;;;20584053;28;20092;-74
2023/04/26 04:06:31;;;;;;;5.35;2.45;;;2.70;99.90;;;;;;20582947;28;20035;-74
2023/04/26 04:16:32;;;;;;;12.05;2.25;;;2.70;99.90;;;;;;20584516;28;20042;-74
2023/04/26 04:26:33;;;;;;;4.93;2.33;;;2.80;99.90;;;;;;20582004;28;20033;-74
2023/04/26 04:36:34;;;;;;;4.25;2.35;;;3.00;99.90;;;;;;20571434;28;20038;-75
2023/04/26 04:46:37;;;;;;;5.00;2.92;;;3.10;99.90;;;;;;20577249;28;20035;-75
2023/04/26 04:56:38;;;;;;;4.43;2.67;;;3.10;99.90;;;;;;20578698;28;20552;-74
2023/04/26 05:06:39;;;;;;;5.97;2.90;;;3.20;99.90;;;;;;20581025;28;20034;-73
2023/04/26 05:16:41;;;;;;;10.27;5.22;;;3.10;99.90;;;;;;20580123;28;20027;-74
2023/04/26 05:26:41;;;;;;;10.55;5.63;;;3.30;99.90;;;;;;20579257;28;20031;-75
2023/04/26 05:37:02;;;;;;;10.30;5.20;;;3.80;99.90;;;;;;20578807;28;20039;-75
2023/04/26 05:47:03;;;;;;;18.35;6.90;;;3.90;99.90;;;;;;20581755;28;20042;-74
2023/04/26 05:57:05;;;;;;;13.10;5.78;;;4.10;99.90;;;;;;20592106;28;20034;-75
2023/04/26 06:07:06;;;;;;;14.27;6.18;;;4.30;99.90;;;;;;20592316;28;20057;-75
2023/04/26 06:17:08;;;;;;;11.23;5.72;;;4.60;99.90;;;;;;20591647;28;20039;-75
2023/04/26 06:27:09;;;;;;;10.82;5.47;;;5.10;99.90;;;;;;20590665;28;20030;-76
2023/04/26 06:37:11;;;;;;;11.63;5.53;;;5.40;99.90;;;;;;20591281;28;20039;-75
2023/04/26 06:47:16;;;;;;;11.20;5.65;;;5.40;99.90;;;;;;20589742;28;20065;-75
2023/04/26 06:57:17;;;;;;;12.80;6.15;;;5.60;99.90;;;;;;20588497;28;20035;-75
2023/04/26 07:07:17;;;;;;;;;;;5.90;99.90;;;;;;20588711;28;20050;-75
2023/04/26 07:17:18;;;;;;;11.90;5.90;;;6.50;99.90;;;;;;20587598;28;19917;-75
2023/04/26 07:27:19;;;;;;;10.75;6.07;;;6.80;99.90;;;;;;20587209;28;20317;-74
2023/04/26 07:37:20;;;;;;;11.45;6.03;;;7.00;99.90;;;;;;20587297;28;20433;-75
2023/04/26 07:47:20;;;;;;;11.60;6.17;;;7.40;99.90;;;;;;20586070;28;20033;-75
2023/04/26 07:57:21;;;;;;;11.77;5.77;;;8.00;99.90;;;;;;20585586;28;20080;-75
2023/04/26 08:07:22;;;;;;;11.97;6.17;;;7.90;99.90;;;;;;20585015;28;20140;-75
2023/04/26 08:17:23;;;;;;;10.80;6.32;;;9.40;99.90;;;;;;20583657;28;20041;-75
2023/04/26 08:27:24;;;;;;;12.67;6.57;;;9.70;99.90;;;;;;20583619;28;20036;-75
2023/04/26 08:37:25;;;;;;;11.70;5.80;;;9.80;99.90;;;;;;20583197;28;20062;-74
2023/04/26 08:47:42;;;;;;;8.43;5.03;;;10.80;99.90;;;;;;20582471;28;20045;-75
2023/04/26 08:57:45;;;;;;;11.27;4.13;;;12.30;99.90;;;;;;20618184;23;20042;-75
2023/04/26 09:07:47;;;;;;;10.68;4.57;;;12.20;99.90;;;;;;20743131;28;20037;-75
2023/04/26 09:17:48;;;;;;;;;;;12.40;99.90;;;;;;20743909;28;20084;-73
2023/04/26 09:27:50;;;;;;;8.63;4.00;;;12.30;99.90;;;;;;20755973;28;20579;-74
2023/04/26 09:37:51;;;;;;;;;;;12.40;99.90;;;;;;20760941;28;20045;-75
2023/04/26 09:47:52;;;;;;;7.72;4.30;;;12.50;99.90;;;;;;20773206;28;20375;-75
2023/04/26 09:57:54;;;;;;;11.63;4.60;;;14.30;99.90;;;;;;20771818;28;20033;-75
2023/04/26 10:07:55;;;;;;;7.68;3.63;;;14.80;99.90;;;;;;20756044;28;20052;-76
2023/04/26 10:17:56;;;;;;;;;;;14.70;99.90;;;;;;20754173;28;20042;-75
2023/04/26 10:27:57;;;;;;;7.60;4.03;;;14.70;99.90;;;;;;20755039;28;20470;-76
2023/04/26 10:38:00;;;;;;;5.10;3.33;;;14.70;99.90;;;;;;20754170;28;20281;-75
2023/04/26 10:48:17;;;;;;;7.68;2.92;;;16.60;99.90;;;;;;20772595;28;20038;-76
2023/04/26 10:58:30;;;;;;;5.63;2.17;;;16.40;99.90;;;;;;20752723;28;20041;-75
2023/04/26 11:08:31;;;;;;;3.72;1.67;;;16.30;99.90;;;;;;20750585;28;20703;-74
2023/04/26 11:18:32;;;;;;;8.80;1.83;;;16.00;99.90;;;;;;20750812;28;20038;-75
2023/04/26 11:28:35;;;;;;;3.95;1.50;;;15.80;99.90;;;;;;20751802;28;20022;-75
2023/04/26 11:38:37;;;;;;;3.65;1.73;;;16.20;99.90;;;;;;20765860;28;20037;-75
2023/04/26 11:48:38;;;;;;;3.95;2.05;;;14.90;99.90;;;;;;20748424;28;20044;-75
2023/04/26 11:58:39;;;;;;;5.50;1.92;;;14.30;99.90;;;;;;20747215;28;20034;-75
2023/04/26 12:08:40;;;;;;;4.87;1.73;;;14.00;99.90;;;;;;20747647;28;20122;-76
2023/04/26 12:18:41;;;;;;;5.22;1.85;;;15.10;99.90;;;;;;20762744;28;20570;-75
2023/04/26 12:28:42;;;;;;;7.03;2.23;;;15.10;99.90;;;;;;20748044;28;20046;-75
2023/04/26 12:38:42;;;;;;;5.10;1.80;;;15.90;99.90;;;;;;20746955;28;20087;-74
2023/04/26 12:48:43;;;;;;;3.40;1.70;;;15.70;99.90;;;;;;20745065;28;20451;-75
2023/04/26 12:58:44;;;;;;;8.13;1.83;;;16.40;99.90;;;;;;20742868;28;20045;-75
2023/04/26 13:08:45;;;;;;;3.90;1.97;;;17.00;99.90;;;;;;20746846;28;20037;-75
2023/04/26 13:18:46;;;;;;;3.00;2.00;;;16.00;99.90;;;;;;20743431;28;20033;-75
2023/04/26 13:28:47;;;;;;;8.87;5.00;;;16.70;99.90;;;;;;20742626;28;20169;-75
2023/04/26 13:38:48;;;;;;;4.17;2.00;;;16.60;99.90;;;;;;20742162;28;20496;-75
2023/04/26 13:48:48;;;;;;;5.77;2.00;;;15.60;99.90;;;;;;20742114;28;20075;-75
2023/04/26 13:58:53;;;;;;;3.13;1.83;;;15.80;99.90;;;;;;20741138;28;20489;-75
2023/04/26 14:08:54;;;;;;;3.75;2.20;;;16.00;99.90;;;;;;20744823;28;20703;-75
2023/04/26 14:18:54;;;;;;;5.93;2.20;;;15.50;99.90;;;;;;20753470;28;20034;-75
2023/04/26 14:28:55;;;;;;;3.50;2.17;;;15.30;99.90;;;;;;20754082;28;20065;-76
2023/04/26 14:38:56;;;;;;;4.53;1.90;;;15.70;99.90;;;;;;20754786;28;20049;-74
2023/04/26 14:48:57;;;;;;;2.07;1.60;;;16.40;99.90;;;;;;20758867;28;20026;-75
2023/04/26 14:58:57;;;;;;;7.20;1.97;;;16.30;99.90;;;;;;20786839;28;20119;-75
2023/04/26 15:08:58;;;;;;;5.30;1.73;;;16.00;99.90;;;;;;20763008;28;20104;-75
2023/04/26 15:19:00;;;;;;;5.93;1.77;;;15.40;99.90;;;;;;20750568;28;20052;-74
2023/04/26 15:29:00;;;;;;;;;;;15.70;99.90;;;;;;20750006;28;20096;-74
2023/04/26 15:39:01;;;;;;;5.23;1.73;;;15.70;99.90;;;;;;20749330;28;20304;-75
2023/04/26 15:49:03;;;;;;;6.17;2.63;;;16.30;99.90;;;;;;20747481;28;20030;-74
2023/04/26 15:59:03;;;;;;;6.47;1.97;;;15.90;99.90;;;;;;20746655;28;20052;-75
2023/04/26 16:09:07;;;;;;;5.80;2.43;;;15.40;99.90;;;;;;20761305;28;20652;-75
2023/04/26 16:19:08;;;;;;;6.93;1.92;;;14.90;99.90;;;;;;20745928;28;20038;-74
2023/04/26 16:29:09;;;;;;;5.60;2.30;;;15.00;99.90;;;;;;20762078;28;20064;-75
2023/04/26 16:39:11;;;;;;;3.03;1.80;;;14.50;99.90;;;;;;20745239;28;20042;-75
2023/04/26 16:49:15;;;;;;;2.83;1.90;;;14.60;99.90;;;;;;20743815;28;20038;-75
2023/04/26 16:59:15;;;;;;;3.75;1.85;;;14.30;99.90;;;;;;20743517;28;20088;-76
2023/04/26 17:09:17;;;;;;;4.93;3.60;;;14.20;99.90;;;;;;20745001;28;20038;-76
2023/04/26 17:19:18;;;;;;;;;;;14.10;99.90;;;;;;20750446;28;20180;-77
2023/04/26 17:29:18;;;;;;;6.10;2.30;;;14.00;99.90;;;;;;20745916;28;20436;-76
2023/04/26 17:39:19;;;;;;;7.67;1.90;;;13.90;99.90;;;;;;20740430;28;20552;-77
2023/04/26 17:49:24;;;;;;;3.73;1.87;;;13.90;99.90;;;;;;20755049;28;20033;-75
2023/04/26 17:59:25;;;;;;;4.43;2.40;;;13.80;99.90;;;;;;20755602;28;20038;-75
2023/04/26 18:09:25;;;;;;;10.10;3.37;;;13.90;99.90;;;;;;20757524;28;20393;-76
2023/04/26 18:19:26;;;;;;;9.37;3.60;;;13.60;99.90;;;;;;20774268;28;20030;-78
2023/04/26 18:29:27;;;;;;;2.97;1.93;;;13.50;99.90;;;;;;20760897;28;20030;-76
2023/04/26 18:39:29;;;;;;;6.15;2.53;;;13.30;99.90;;;;;;20768247;28;20049;-78
2023/04/26 18:49:30;;;;;;;4.30;2.13;;;12.90;99.90;;;;;;20757557;28;20034;-76
2023/04/26 18:59:31;;;;;;;3.40;2.20;;;12.40;99.90;;;;;;20753209;28;20033;-75
2023/04/26 19:09:32;;;;;;;9.23;2.37;;;12.00;99.90;;;;;;20755446;28;20057;-77
2023/04/26 19:19:33;;;;;;;8.25;2.40;;;11.70;99.90;;;;;;20749147;28;20057;-77
2023/04/26 19:29:33;;;;;;;3.53;2.53;;;11.50;99.90;;;;;;20767210;28;20049;-75
2023/04/26 19:39:34;;;;;;;5.03;2.60;;;11.40;99.90;;;;;;20719086;28;20495;-75
2023/04/26 19:49:35;;;;;;;3.90;2.10;;;11.40;99.90;;;;;;20787685;28;20025;-75
2023/04/26 19:59:36;;;;;;;7.33;2.47;;;11.30;99.90;;;;;;20781539;28;20037;-75
2023/04/26 20:09:37;;;;;;;5.43;2.40;;;11.00;99.90;;;;;;20778114;28;20545;-75
2023/04/26 20:19:38;;;;;;;4.53;2.80;;;10.70;99.90;;;;;;20776114;28;20025;-74
2023/04/26 20:29:38;;;;;;;3.93;2.10;;;10.20;99.90;;;;;;20783683;28;20025;-76
2023/04/26 20:39:39;;;;;;;5.53;2.60;;;9.90;99.90;;;;;;20779390;28;20491;-76
2023/04/26 20:49:40;;;;;;;4.03;2.13;;;9.80;99.90;;;;;;20757136;28;20037;-76
2023/04/26 20:59:41;;;;;;;3.97;2.40;;;9.90;99.90;;;;;;20731580;22;20116;-74
2023/04/26 21:09:42;;;;;;;6.83;2.53;;;9.70;99.90;;;;;;20663857;28;20497;-75
2023/04/26 21:19:43;;;;;;;9.00;3.50;;;9.50;99.90;;;;;;20596454;28;20063;-74
2023/04/26 21:29:44;;;;;;;5.15;2.80;;;9.40;99.90;;;;;;20597192;28;20110;-74
2023/04/26 21:39:45;;;;;;;10.30;3.20;;;9.20;99.90;;;;;;20596556;28;20066;-74
2023/04/26 21:49:45;;;;;;;4.43;2.80;;;9.50;99.90;;;;;;20595496;28;20050;-74
2023/04/26 21:59:46;;;;;;;3.80;2.63;;;9.40;99.90;;;;;;20593916;28;20039;-75
2023/04/26 22:09:47;;;;;;;5.60;2.93;;;9.00;99.90;;;;;;20593605;28;20034;-73
2023/04/26 22:19:48;;;;;;;7.67;2.70;;;9.00;99.90;;;;;;20593051;28;20086;-73
2023/04/26 22:29:49;;;;;;;5.90;2.72;;;9.20;99.90;;;;;;20590688;28;20066;-73
2023/04/26 22:39:51;;;;;;;9.73;3.10;;;9.00;99.90;;;;;;20591251;28;20027;-74
2023/04/26 22:49:52;;;;;;;8.18;3.00;;;9.10;99.90;;;;;;20590523;28;20030;-74
2023/04/26 22:59:53;;;;;;;8.17;3.17;;;8.90;99.90;;;;;;20589685;28;20035;-73
2023/04/26 23:09:53;;;;;;;6.67;3.17;;;8.90;99.90;;;;;;20589200;28;20134;-74
2023/04/26 23:19:55;;;;;;;5.37;3.17;;;9.10;99.90;;;;;;20588317;28;20397;-74
2023/04/26 23:29:57;;;;;;;;;;;9.30;99.90;;;;;;20587590;28;20073;-74
2023/04/26 23:40:00;;;;;;;5.10;2.65;;;9.30;99.90;;;;;;20586980;28;20382;-74
2023/04/26 23:50:00;;;;;;;7.77;3.07;;;9.40;99.90;;;;;;20585389;28;20046;-74
